sensor_id;sensor_type;location;lat;lon;timestamp;P1;durP1;ratioP1;P2;durP2;ratioP2
33696;SDS011;20031;43.416;23.232;2022-12-07T00:00:27;34.75;;;17.40;;
33696;SDS011;20031;43.416;23.232;2022-12-07T00:02:53;28.60;;;16.60;;
33696;SDS011;20031;43.416;23.232;2022-12-07T00:05:18;28.73;;;17.17;;
33696;SDS011;20031;43.416;23.232;2022-12-07T00:07:44;30.60;;;16.95;;
33696;SDS011;20031;43.416;23.232;2022-12-07T00:10:09;27.15;;;15.23;;
33696;SDS011;20031;43.416;23.232;2022-12-07T00:12:34;27.23;;;15.60;;
33696;SDS011;20031;43.416;23.232;2022-12-07T00:15:00;27.50;;;15.77;;
33696;SDS011;20031;43.416;23.232;2022-12-07T00:17:25;30.20;;;17.58;;
33696;SDS011;20031;43.416;23.232;2022-12-07T00:19:51;33.40;;;19.00;;
33696;SDS011;20031;43.416;23.232;2022-12-07T00:22:16;30.77;;;17.85;;
33696;SDS011;20031;43.416;23.232;2022-12-07T00:24:41;28.92;;;17.67;;
33696;SDS011;20031;43.416;23.232;2022-12-07T00:27:07;30.60;;;17.63;;
33696;SDS011;20031;43.416;23.232;2022-12-07T00:29:32;31.00;;;17.65;;
33696;SDS011;20031;43.416;23.232;2022-12-07T00:31:58;28.48;;;16.75;;
33696;SDS011;20031;43.416;23.232;2022-12-07T00:34:23;28.25;;;16.67;;
33696;SDS011;20031;43.416;23.232;2022-12-07T00:36:49;27.23;;;16.38;;
33696;SDS011;20031;43.416;23.232;2022-12-07T00:39:15;24.40;;;15.57;;
33696;SDS011;20031;43.416;23.232;2022-12-07T00:41:40;26.73;;;16.50;;
33696;SDS011;20031;43.416;23.232;2022-12-07T00:44:06;27.25;;;15.77;;
33696;SDS011;20031;43.416;23.232;2022-12-07T00:46:31;26.10;;;15.02;;
33696;SDS011;20031;43.416;23.232;2022-12-07T00:48:57;24.50;;;14.57;;
33696;SDS011;20031;43.416;23.232;2022-12-07T00:51:23;27.42;;;17.00;;
33696;SDS011;20031;43.416;23.232;2022-12-07T00:53:49;25.83;;;15.50;;
33696;SDS011;20031;43.416;23.232;2022-12-07T00:56:16;25.92;;;15.18;;
33696;SDS011;20031;43.416;23.232;2022-12-07T00:58:44;27.83;;;15.93;;
33696;SDS011;20031;43.416;23.232;2022-12-07T01:01:14;24.45;;;15.32;;
33696;SDS011;20031;43.416;23.232;2022-12-07T01:03:40;28.25;;;15.88;;
33696;SDS011;20031;43.416;23.232;2022-12-07T01:06:05;30.90;;;16.80;;
33696;SDS011;20031;43.416;23.232;2022-12-07T01:08:31;26.95;;;15.50;;
33696;SDS011;20031;43.416;23.232;2022-12-07T01:11:00;25.77;;;15.63;;
33696;SDS011;20031;43.416;23.232;2022-12-07T01:13:28;28.85;;;15.55;;
33696;SDS011;20031;43.416;23.232;2022-12-07T01:15:56;22.85;;;14.75;;
33696;SDS011;20031;43.416;23.232;2022-12-07T01:18:26;25.95;;;15.20;;
33696;SDS011;20031;43.416;23.232;2022-12-07T01:23:29;23.80;;;14.55;;
33696;SDS011;20031;43.416;23.232;2022-12-07T01:25:58;28.77;;;15.88;;
33696;SDS011;20031;43.416;23.232;2022-12-07T01:28:25;25.52;;;14.82;;
33696;SDS011;20031;43.416;23.232;2022-12-07T01:30:54;25.48;;;15.35;;
33696;SDS011;20031;43.416;23.232;2022-12-07T01:33:22;28.60;;;14.68;;
33696;SDS011;20031;43.416;23.232;2022-12-07T01:35:48;24.98;;;14.43;;
33696;SDS011;20031;43.416;23.232;2022-12-07T01:38:13;24.65;;;14.45;;
33696;SDS011;20031;43.416;23.232;2022-12-07T01:40:39;23.52;;;14.55;;
33696;SDS011;20031;43.416;23.232;2022-12-07T01:43:09;26.38;;;15.63;;
33696;SDS011;20031;43.416;23.232;2022-12-07T01:45:41;23.35;;;14.27;;
33696;SDS011;20031;43.416;23.232;2022-12-07T01:48:07;22.02;;;14.27;;
33696;SDS011;20031;43.416;23.232;2022-12-07T01:50:36;26.23;;;15.05;;
33696;SDS011;20031;43.416;23.232;2022-12-07T01:53:04;23.70;;;14.85;;
33696;SDS011;20031;43.416;23.232;2022-12-07T01:55:33;25.63;;;14.57;;
33696;SDS011;20031;43.416;23.232;2022-12-07T01:58:02;24.67;;;13.98;;
33696;SDS011;20031;43.416;23.232;2022-12-07T02:00:28;19.45;;;13.02;;
33696;SDS011;20031;43.416;23.232;2022-12-07T02:02:55;21.98;;;13.45;;
33696;SDS011;20031;43.416;23.232;2022-12-07T02:05:26;23.77;;;13.73;;
33696;SDS011;20031;43.416;23.232;2022-12-07T02:07:53;23.38;;;13.93;;
33696;SDS011;20031;43.416;23.232;2022-12-07T02:10:22;21.65;;;13.52;;
33696;SDS011;20031;43.416;23.232;2022-12-07T02:12:56;21.13;;;12.65;;
33696;SDS011;20031;43.416;23.232;2022-12-07T02:15:27;22.30;;;14.43;;
33696;SDS011;20031;43.416;23.232;2022-12-07T02:29:32;21.05;;;13.27;;
33696;SDS011;20031;43.416;23.232;2022-12-07T02:32:19;19.65;;;12.65;;
33696;SDS011;20031;43.416;23.232;2022-12-07T02:35:09;22.98;;;13.30;;
33696;SDS011;20031;43.416;23.232;2022-12-07T02:40:16;20.00;;;12.35;;
33696;SDS011;20031;43.416;23.232;2022-12-07T02:42:46;21.35;;;12.70;;
33696;SDS011;20031;43.416;23.232;2022-12-07T02:45:20;18.52;;;12.00;;
33696;SDS011;20031;43.416;23.232;2022-12-07T02:47:48;23.80;;;12.50;;
33696;SDS011;20031;43.416;23.232;2022-12-07T02:50:19;19.55;;;12.75;;
33696;SDS011;20031;43.416;23.232;2022-12-07T02:52:45;21.77;;;12.52;;
33696;SDS011;20031;43.416;23.232;2022-12-07T02:55:11;19.02;;;12.70;;
33696;SDS011;20031;43.416;23.232;2022-12-07T03:00:11;20.70;;;12.73;;
33696;SDS011;20031;43.416;23.232;2022-12-07T03:02:44;22.77;;;13.15;;
33696;SDS011;20031;43.416;23.232;2022-12-07T03:05:20;18.35;;;12.15;;
33696;SDS011;20031;43.416;23.232;2022-12-07T03:10:50;19.38;;;11.57;;
33696;SDS011;20031;43.416;23.232;2022-12-07T03:13:24;18.15;;;11.90;;
33696;SDS011;20031;43.416;23.232;2022-12-07T03:15:58;19.35;;;12.20;;
33696;SDS011;20031;43.416;23.232;2022-12-07T03:18:27;20.27;;;11.85;;
33696;SDS011;20031;43.416;23.232;2022-12-07T03:20:56;22.77;;;12.18;;
33696;SDS011;20031;43.416;23.232;2022-12-07T03:23:26;20.73;;;11.57;;
33696;SDS011;20031;43.416;23.232;2022-12-07T03:25:55;20.05;;;11.45;;
33696;SDS011;20031;43.416;23.232;2022-12-07T03:28:26;21.00;;;11.80;;
33696;SDS011;20031;43.416;23.232;2022-12-07T03:31:03;18.77;;;11.25;;
33696;SDS011;20031;43.416;23.232;2022-12-07T03:33:42;22.88;;;11.75;;
33696;SDS011;20031;43.416;23.232;2022-12-07T03:36:35;20.27;;;11.90;;
33696;SDS011;20031;43.416;23.232;2022-12-07T03:41:43;23.13;;;11.93;;
33696;SDS011;20031;43.416;23.232;2022-12-07T03:44:08;18.35;;;11.85;;
33696;SDS011;20031;43.416;23.232;2022-12-07T03:49:37;18.80;;;11.57;;
33696;SDS011;20031;43.416;23.232;2022-12-07T03:57:33;21.40;;;12.57;;
33696;SDS011;20031;43.416;23.232;2022-12-07T04:00:00;25.60;;;11.68;;
33696;SDS011;20031;43.416;23.232;2022-12-07T04:02:29;19.05;;;10.95;;
33696;SDS011;20031;43.416;23.232;2022-12-07T04:04:55;20.45;;;11.80;;
33696;SDS011;20031;43.416;23.232;2022-12-07T04:07:21;20.50;;;11.98;;
33696;SDS011;20031;43.416;23.232;2022-12-07T04:09:46;17.52;;;10.95;;
33696;SDS011;20031;43.416;23.232;2022-12-07T04:12:12;20.55;;;11.77;;
33696;SDS011;20031;43.416;23.232;2022-12-07T04:14:37;22.38;;;11.10;;
33696;SDS011;20031;43.416;23.232;2022-12-07T04:17:03;20.33;;;11.75;;
33696;SDS011;20031;43.416;23.232;2022-12-07T04:19:29;22.63;;;12.73;;
33696;SDS011;20031;43.416;23.232;2022-12-07T04:21:58;19.75;;;12.63;;
33696;SDS011;20031;43.416;23.232;2022-12-07T04:24:25;25.83;;;16.40;;
33696;SDS011;20031;43.416;23.232;2022-12-07T04:26:51;31.73;;;18.73;;
33696;SDS011;20031;43.416;23.232;2022-12-07T04:29:17;26.13;;;14.07;;
33696;SDS011;20031;43.416;23.232;2022-12-07T04:31:44;26.13;;;14.63;;
33696;SDS011;20031;43.416;23.232;2022-12-07T04:34:10;31.10;;;17.40;;
33696;SDS011;20031;43.416;23.232;2022-12-07T04:36:36;26.63;;;14.70;;
33696;SDS011;20031;43.416;23.232;2022-12-07T04:39:03;29.08;;;15.75;;
33696;SDS011;20031;43.416;23.232;2022-12-07T04:41:29;30.52;;;17.77;;
33696;SDS011;20031;43.416;23.232;2022-12-07T04:43:57;31.33;;;18.23;;
33696;SDS011;20031;43.416;23.232;2022-12-07T04:46:24;29.20;;;16.65;;
33696;SDS011;20031;43.416;23.232;2022-12-07T04:48:51;24.60;;;13.95;;
33696;SDS011;20031;43.416;23.232;2022-12-07T04:51:21;20.15;;;12.50;;
33696;SDS011;20031;43.416;23.232;2022-12-07T04:53:48;17.30;;;11.50;;
33696;SDS011;20031;43.416;23.232;2022-12-07T04:56:14;20.42;;;11.93;;
33696;SDS011;20031;43.416;23.232;2022-12-07T04:58:41;17.35;;;11.45;;
33696;SDS011;20031;43.416;23.232;2022-12-07T05:01:08;20.02;;;11.52;;
33696;SDS011;20031;43.416;23.232;2022-12-07T05:03:38;19.08;;;12.20;;
33696;SDS011;20031;43.416;23.232;2022-12-07T05:06:04;22.20;;;13.23;;
33696;SDS011;20031;43.416;23.232;2022-12-07T05:08:31;27.00;;;17.90;;
33696;SDS011;20031;43.416;23.232;2022-12-07T05:10:57;21.45;;;13.82;;
33696;SDS011;20031;43.416;23.232;2022-12-07T05:13:23;20.20;;;12.45;;
33696;SDS011;20031;43.416;23.232;2022-12-07T05:15:48;26.70;;;17.15;;
33696;SDS011;20031;43.416;23.232;2022-12-07T05:18:14;35.22;;;21.52;;
33696;SDS011;20031;43.416;23.232;2022-12-07T05:20:40;38.20;;;23.27;;
33696;SDS011;20031;43.416;23.232;2022-12-07T05:23:06;40.42;;;23.75;;
33696;SDS011;20031;43.416;23.232;2022-12-07T05:25:31;30.50;;;20.85;;
33696;SDS011;20031;43.416;23.232;2022-12-07T05:27:57;26.77;;;16.40;;
33696;SDS011;20031;43.416;23.232;2022-12-07T05:30:23;23.85;;;16.08;;
33696;SDS011;20031;43.416;23.232;2022-12-07T05:32:49;23.60;;;14.48;;
33696;SDS011;20031;43.416;23.232;2022-12-07T05:35:15;18.70;;;12.27;;
33696;SDS011;20031;43.416;23.232;2022-12-07T05:37:40;22.17;;;14.18;;
33696;SDS011;20031;43.416;23.232;2022-12-07T05:40:06;23.90;;;15.57;;
33696;SDS011;20031;43.416;23.232;2022-12-07T05:42:32;22.42;;;13.63;;
33696;SDS011;20031;43.416;23.232;2022-12-07T05:44:57;18.67;;;11.35;;
33696;SDS011;20031;43.416;23.232;2022-12-07T05:47:23;16.02;;;10.40;;
33696;SDS011;20031;43.416;23.232;2022-12-07T05:49:48;21.50;;;12.00;;
33696;SDS011;20031;43.416;23.232;2022-12-07T05:52:14;17.05;;;10.65;;
33696;SDS011;20031;43.416;23.232;2022-12-07T05:54:39;16.50;;;10.40;;
33696;SDS011;20031;43.416;23.232;2022-12-07T05:57:05;17.92;;;10.73;;
33696;SDS011;20031;43.416;23.232;2022-12-07T05:59:30;17.52;;;9.52;;
33696;SDS011;20031;43.416;23.232;2022-12-07T06:04:25;20.75;;;10.35;;
33696;SDS011;20031;43.416;23.232;2022-12-07T06:06:52;18.77;;;10.95;;
33696;SDS011;20031;43.416;23.232;2022-12-07T06:09:19;21.63;;;12.82;;
33696;SDS011;20031;43.416;23.232;2022-12-07T06:11:45;19.25;;;12.27;;
33696;SDS011;20031;43.416;23.232;2022-12-07T06:14:30;28.40;;;14.52;;
33696;SDS011;20031;43.416;23.232;2022-12-07T06:16:55;33.55;;;17.55;;
33696;SDS011;20031;43.416;23.232;2022-12-07T06:19:21;42.88;;;18.27;;
33696;SDS011;20031;43.416;23.232;2022-12-07T06:21:46;62.42;;;21.52;;
33696;SDS011;20031;43.416;23.232;2022-12-07T06:24:12;74.25;;;38.63;;
33696;SDS011;20031;43.416;23.232;2022-12-07T06:26:39;78.05;;;28.02;;
33696;SDS011;20031;43.416;23.232;2022-12-07T06:29:04;48.00;;;19.90;;
33696;SDS011;20031;43.416;23.232;2022-12-07T06:31:30;71.72;;;23.88;;
33696;SDS011;20031;43.416;23.232;2022-12-07T06:33:59;61.55;;;25.33;;
33696;SDS011;20031;43.416;23.232;2022-12-07T06:36:25;75.88;;;34.60;;
33696;SDS011;20031;43.416;23.232;2022-12-07T06:38:51;45.03;;;21.27;;
33696;SDS011;20031;43.416;23.232;2022-12-07T06:41:17;47.35;;;22.27;;
33696;SDS011;20031;43.416;23.232;2022-12-07T06:43:42;87.50;;;40.33;;
33696;SDS011;20031;43.416;23.232;2022-12-07T06:46:08;99.47;;;43.65;;
33696;SDS011;20031;43.416;23.232;2022-12-07T06:48:33;64.70;;;28.67;;
33696;SDS011;20031;43.416;23.232;2022-12-07T06:50:59;70.43;;;28.30;;
33696;SDS011;20031;43.416;23.232;2022-12-07T06:53:24;36.35;;;21.48;;
33696;SDS011;20031;43.416;23.232;2022-12-07T06:55:50;42.75;;;21.13;;
33696;SDS011;20031;43.416;23.232;2022-12-07T06:58:16;33.10;;;17.52;;
33696;SDS011;20031;43.416;23.232;2022-12-07T07:00:42;58.83;;;29.13;;
33696;SDS011;20031;43.416;23.232;2022-12-07T07:03:08;77.75;;;38.25;;
33696;SDS011;20031;43.416;23.232;2022-12-07T07:05:34;52.72;;;26.25;;
33696;SDS011;20031;43.416;23.232;2022-12-07T07:07:59;40.10;;;20.52;;
33696;SDS011;20031;43.416;23.232;2022-12-07T07:10:25;31.90;;;18.02;;
33696;SDS011;20031;43.416;23.232;2022-12-07T07:12:51;32.03;;;18.63;;
33696;SDS011;20031;43.416;23.232;2022-12-07T07:15:16;37.13;;;18.45;;
33696;SDS011;20031;43.416;23.232;2022-12-07T07:17:42;32.47;;;19.90;;
33696;SDS011;20031;43.416;23.232;2022-12-07T07:20:08;39.05;;;19.70;;
33696;SDS011;20031;43.416;23.232;2022-12-07T07:22:34;61.10;;;26.40;;
33696;SDS011;20031;43.416;23.232;2022-12-07T07:24:59;55.80;;;32.47;;
33696;SDS011;20031;43.416;23.232;2022-12-07T07:27:24;60.13;;;31.40;;
33696;SDS011;20031;43.416;23.232;2022-12-07T07:29:50;54.28;;;26.08;;
33696;SDS011;20031;43.416;23.232;2022-12-07T07:32:15;40.33;;;21.00;;
33696;SDS011;20031;43.416;23.232;2022-12-07T07:34:41;30.95;;;17.25;;
33696;SDS011;20031;43.416;23.232;2022-12-07T07:37:06;36.58;;;19.20;;
33696;SDS011;20031;43.416;23.232;2022-12-07T07:39:32;26.55;;;15.90;;
33696;SDS011;20031;43.416;23.232;2022-12-07T07:41:57;32.00;;;19.23;;
33696;SDS011;20031;43.416;23.232;2022-12-07T07:44:22;31.58;;;20.27;;
33696;SDS011;20031;43.416;23.232;2022-12-07T07:46:48;24.23;;;15.20;;
33696;SDS011;20031;43.416;23.232;2022-12-07T07:49:13;23.65;;;14.98;;
33696;SDS011;20031;43.416;23.232;2022-12-07T07:51:39;27.65;;;16.08;;
33696;SDS011;20031;43.416;23.232;2022-12-07T07:54:04;25.98;;;14.35;;
33696;SDS011;20031;43.416;23.232;2022-12-07T07:56:30;24.08;;;13.93;;
33696;SDS011;20031;43.416;23.232;2022-12-07T07:58:55;22.02;;;13.50;;
33696;SDS011;20031;43.416;23.232;2022-12-07T08:01:21;18.75;;;12.18;;
33696;SDS011;20031;43.416;23.232;2022-12-07T08:03:46;24.65;;;13.15;;
33696;SDS011;20031;43.416;23.232;2022-12-07T08:06:12;17.75;;;11.48;;
33696;SDS011;20031;43.416;23.232;2022-12-07T08:08:38;15.48;;;10.20;;
33696;SDS011;20031;43.416;23.232;2022-12-07T08:11:06;16.20;;;10.35;;
33696;SDS011;20031;43.416;23.232;2022-12-07T08:13:32;19.80;;;10.20;;
33696;SDS011;20031;43.416;23.232;2022-12-07T08:15:58;18.95;;;11.00;;
33696;SDS011;20031;43.416;23.232;2022-12-07T08:18:28;20.58;;;12.90;;
33696;SDS011;20031;43.416;23.232;2022-12-07T08:20:58;23.13;;;14.23;;
33696;SDS011;20031;43.416;23.232;2022-12-07T08:23:25;25.05;;;13.57;;
33696;SDS011;20031;43.416;23.232;2022-12-07T08:25:51;25.13;;;14.38;;
33696;SDS011;20031;43.416;23.232;2022-12-07T08:28:17;32.05;;;19.13;;
33696;SDS011;20031;43.416;23.232;2022-12-07T08:30:42;33.13;;;18.02;;
33696;SDS011;20031;43.416;23.232;2022-12-07T08:33:08;31.85;;;17.00;;
33696;SDS011;20031;43.416;23.232;2022-12-07T08:35:35;37.80;;;19.17;;
33696;SDS011;20031;43.416;23.232;2022-12-07T08:38:01;36.20;;;18.33;;
33696;SDS011;20031;43.416;23.232;2022-12-07T08:40:27;32.40;;;17.60;;
33696;SDS011;20031;43.416;23.232;2022-12-07T08:42:53;46.63;;;23.05;;
33696;SDS011;20031;43.416;23.232;2022-12-07T08:45:19;42.45;;;21.70;;
33696;SDS011;20031;43.416;23.232;2022-12-07T08:50:36;27.23;;;16.27;;
33696;SDS011;20031;43.416;23.232;2022-12-07T08:53:02;30.98;;;16.48;;
33696;SDS011;20031;43.416;23.232;2022-12-07T08:55:30;39.25;;;21.15;;
33696;SDS011;20031;43.416;23.232;2022-12-07T08:57:58;33.30;;;17.15;;
33696;SDS011;20031;43.416;23.232;2022-12-07T09:00:25;39.33;;;19.23;;
33696;SDS011;20031;43.416;23.232;2022-12-07T09:02:51;32.88;;;18.25;;
33696;SDS011;20031;43.416;23.232;2022-12-07T09:05:16;41.72;;;20.05;;
33696;SDS011;20031;43.416;23.232;2022-12-07T09:07:43;34.08;;;18.05;;
33696;SDS011;20031;43.416;23.232;2022-12-07T09:10:11;30.70;;;16.30;;
33696;SDS011;20031;43.416;23.232;2022-12-07T09:12:36;27.85;;;15.98;;
33696;SDS011;20031;43.416;23.232;2022-12-07T09:15:02;27.92;;;16.10;;
33696;SDS011;20031;43.416;23.232;2022-12-07T09:17:31;28.55;;;16.73;;
33696;SDS011;20031;43.416;23.232;2022-12-07T09:19:58;32.20;;;17.40;;
33696;SDS011;20031;43.416;23.232;2022-12-07T09:22:27;31.80;;;17.40;;
33696;SDS011;20031;43.416;23.232;2022-12-07T09:24:54;32.78;;;18.05;;
33696;SDS011;20031;43.416;23.232;2022-12-07T09:27:19;37.63;;;18.88;;
33696;SDS011;20031;43.416;23.232;2022-12-07T09:29:44;34.63;;;17.38;;
33696;SDS011;20031;43.416;23.232;2022-12-07T09:32:10;34.50;;;17.15;;
33696;SDS011;20031;43.416;23.232;2022-12-07T09:34:35;43.03;;;19.55;;
33696;SDS011;20031;43.416;23.232;2022-12-07T09:37:01;36.90;;;18.20;;
33696;SDS011;20031;43.416;23.232;2022-12-07T09:39:28;28.35;;;15.93;;
33696;SDS011;20031;43.416;23.232;2022-12-07T09:41:54;46.40;;;29.73;;
33696;SDS011;20031;43.416;23.232;2022-12-07T09:44:23;56.45;;;35.85;;
33696;SDS011;20031;43.416;23.232;2022-12-07T09:46:51;60.40;;;32.47;;
33696;SDS011;20031;43.416;23.232;2022-12-07T09:49:19;74.22;;;36.85;;
33696;SDS011;20031;43.416;23.232;2022-12-07T09:51:47;72.68;;;35.08;;
33696;SDS011;20031;43.416;23.232;2022-12-07T09:54:22;65.05;;;32.40;;
33696;SDS011;20031;43.416;23.232;2022-12-07T09:56:47;49.85;;;26.10;;
33696;SDS011;20031;43.416;23.232;2022-12-07T09:59:14;47.00;;;23.63;;
33696;SDS011;20031;43.416;23.232;2022-12-07T10:01:46;42.15;;;23.52;;
33696;SDS011;20031;43.416;23.232;2022-12-07T10:04:14;60.50;;;25.98;;
33696;SDS011;20031;43.416;23.232;2022-12-07T10:06:43;39.88;;;17.10;;
33696;SDS011;20031;43.416;23.232;2022-12-07T10:09:12;32.03;;;15.25;;
33696;SDS011;20031;43.416;23.232;2022-12-07T10:11:58;26.92;;;14.40;;
33696;SDS011;20031;43.416;23.232;2022-12-07T10:14:31;24.65;;;14.27;;
33696;SDS011;20031;43.416;23.232;2022-12-07T10:16:58;19.38;;;12.27;;
33696;SDS011;20031;43.416;23.232;2022-12-07T10:19:29;28.90;;;14.25;;
33696;SDS011;20031;43.416;23.232;2022-12-07T10:24:25;21.35;;;12.43;;
33696;SDS011;20031;43.416;23.232;2022-12-07T10:26:51;27.13;;;14.00;;
33696;SDS011;20031;43.416;23.232;2022-12-07T10:29:22;37.80;;;15.63;;
33696;SDS011;20031;43.416;23.232;2022-12-07T10:32:01;26.35;;;13.73;;
33696;SDS011;20031;43.416;23.232;2022-12-07T10:34:33;22.20;;;13.43;;
33696;SDS011;20031;43.416;23.232;2022-12-07T10:42:20;18.30;;;11.55;;
33696;SDS011;20031;43.416;23.232;2022-12-07T10:44:48;18.27;;;10.90;;
33696;SDS011;20031;43.416;23.232;2022-12-07T10:56:02;27.95;;;14.55;;
33696;SDS011;20031;43.416;23.232;2022-12-07T11:12:05;25.65;;;14.48;;
33696;SDS011;20031;43.416;23.232;2022-12-07T11:17:36;22.77;;;14.45;;
33696;SDS011;20031;43.416;23.232;2022-12-07T11:34:35;38.45;;;20.15;;
33696;SDS011;20031;43.416;23.232;2022-12-07T11:37:18;33.65;;;21.02;;
33696;SDS011;20031;43.416;23.232;2022-12-07T11:39:52;99.63;;;43.88;;
33696;SDS011;20031;43.416;23.232;2022-12-07T11:42:29;37.67;;;21.63;;
33696;SDS011;20031;43.416;23.232;2022-12-07T11:47:38;39.90;;;22.55;;
33696;SDS011;20031;43.416;23.232;2022-12-07T11:58:23;39.72;;;20.45;;
33696;SDS011;20031;43.416;23.232;2022-12-07T12:03:40;40.15;;;23.17;;
33696;SDS011;20031;43.416;23.232;2022-12-07T12:06:10;45.15;;;25.05;;
33696;SDS011;20031;43.416;23.232;2022-12-07T12:14:20;46.40;;;25.52;;
33696;SDS011;20031;43.416;23.232;2022-12-07T12:17:10;51.97;;;29.23;;
33696;SDS011;20031;43.416;23.232;2022-12-07T12:19:45;45.63;;;25.40;;
33696;SDS011;20031;43.416;23.232;2022-12-07T12:22:39;51.83;;;28.77;;
33696;SDS011;20031;43.416;23.232;2022-12-07T12:25:15;36.10;;;22.10;;
33696;SDS011;20031;43.416;23.232;2022-12-07T12:27:45;35.38;;;20.15;;
33696;SDS011;20031;43.416;23.232;2022-12-07T12:33:01;36.42;;;21.88;;
33696;SDS011;20031;43.416;23.232;2022-12-07T12:35:37;41.53;;;24.67;;
33696;SDS011;20031;43.416;23.232;2022-12-07T12:44:08;65.28;;;32.30;;
33696;SDS011;20031;43.416;23.232;2022-12-07T12:54:35;44.25;;;17.52;;
33696;SDS011;20031;43.416;23.232;2022-12-07T13:10:43;28.33;;;16.27;;
33696;SDS011;20031;43.416;23.232;2022-12-07T13:21:39;27.48;;;17.17;;
33696;SDS011;20031;43.416;23.232;2022-12-07T13:24:00;28.52;;;16.23;;
33696;SDS011;20031;43.416;23.232;2022-12-07T13:31:52;24.45;;;15.38;;
33696;SDS011;20031;43.416;23.232;2022-12-07T13:34:35;25.55;;;15.50;;
33696;SDS011;20031;43.416;23.232;2022-12-07T13:37:17;22.10;;;14.18;;
33696;SDS011;20031;43.416;23.232;2022-12-07T13:39:50;21.10;;;14.48;;
33696;SDS011;20031;43.416;23.232;2022-12-07T13:42:33;28.58;;;16.08;;
33696;SDS011;20031;43.416;23.232;2022-12-07T13:45:13;25.60;;;15.88;;
33696;SDS011;20031;43.416;23.232;2022-12-07T13:47:48;23.17;;;16.02;;
33696;SDS011;20031;43.416;23.232;2022-12-07T13:52:49;31.17;;;18.83;;
33696;SDS011;20031;43.416;23.232;2022-12-07T13:55:15;29.25;;;17.70;;
33696;SDS011;20031;43.416;23.232;2022-12-07T13:57:42;26.73;;;16.00;;
33696;SDS011;20031;43.416;23.232;2022-12-07T14:00:15;29.48;;;17.63;;
33696;SDS011;20031;43.416;23.232;2022-12-07T14:02:59;27.35;;;17.13;;
33696;SDS011;20031;43.416;23.232;2022-12-07T14:05:25;27.33;;;16.67;;
33696;SDS011;20031;43.416;23.232;2022-12-07T14:07:59;26.40;;;16.30;;
33696;SDS011;20031;43.416;23.232;2022-12-07T14:10:39;29.98;;;17.50;;
33696;SDS011;20031;43.416;23.232;2022-12-07T14:15:56;29.30;;;18.33;;
33696;SDS011;20031;43.416;23.232;2022-12-07T14:18:30;32.38;;;20.15;;
33696;SDS011;20031;43.416;23.232;2022-12-07T14:21:06;31.60;;;19.17;;
33696;SDS011;20031;43.416;23.232;2022-12-07T14:23:32;31.27;;;18.63;;
33696;SDS011;20031;43.416;23.232;2022-12-07T14:28:36;33.17;;;18.60;;
33696;SDS011;20031;43.416;23.232;2022-12-07T14:31:02;29.08;;;18.33;;
33696;SDS011;20031;43.416;23.232;2022-12-07T14:33:28;35.05;;;19.45;;
33696;SDS011;20031;43.416;23.232;2022-12-07T14:35:54;29.63;;;18.17;;
33696;SDS011;20031;43.416;23.232;2022-12-07T14:38:24;28.63;;;17.88;;
33696;SDS011;20031;43.416;23.232;2022-12-07T14:40:51;30.77;;;17.83;;
33696;SDS011;20031;43.416;23.232;2022-12-07T14:43:17;30.48;;;18.42;;
33696;SDS011;20031;43.416;23.232;2022-12-07T14:45:44;27.40;;;17.15;;
33696;SDS011;20031;43.416;23.232;2022-12-07T14:48:11;32.58;;;18.40;;
33696;SDS011;20031;43.416;23.232;2022-12-07T14:50:42;34.03;;;20.73;;
33696;SDS011;20031;43.416;23.232;2022-12-07T14:53:16;39.22;;;22.98;;
33696;SDS011;20031;43.416;23.232;2022-12-07T14:55:43;34.25;;;19.90;;
33696;SDS011;20031;43.416;23.232;2022-12-07T14:58:16;36.67;;;20.95;;
33696;SDS011;20031;43.416;23.232;2022-12-07T15:00:42;32.35;;;21.13;;
33696;SDS011;20031;43.416;23.232;2022-12-07T15:03:08;28.60;;;19.00;;
33696;SDS011;20031;43.416;23.232;2022-12-07T15:05:34;33.75;;;19.30;;
33696;SDS011;20031;43.416;23.232;2022-12-07T15:08:00;31.98;;;20.35;;
33696;SDS011;20031;43.416;23.232;2022-12-07T15:10:27;34.67;;;20.73;;
33696;SDS011;20031;43.416;23.232;2022-12-07T15:12:57;33.72;;;19.30;;
33696;SDS011;20031;43.416;23.232;2022-12-07T15:15:41;32.28;;;19.77;;
33696;SDS011;20031;43.416;23.232;2022-12-07T15:18:07;36.70;;;21.45;;
33696;SDS011;20031;43.416;23.232;2022-12-07T15:20:32;35.05;;;20.00;;
33696;SDS011;20031;43.416;23.232;2022-12-07T15:22:58;32.08;;;19.00;;
33696;SDS011;20031;43.416;23.232;2022-12-07T15:25:23;26.30;;;16.85;;
33696;SDS011;20031;43.416;23.232;2022-12-07T15:27:49;28.88;;;17.55;;
33696;SDS011;20031;43.416;23.232;2022-12-07T15:30:15;32.35;;;18.58;;
33696;SDS011;20031;43.416;23.232;2022-12-07T15:32:40;30.52;;;17.00;;
33696;SDS011;20031;43.416;23.232;2022-12-07T15:35:06;34.20;;;19.65;;
33696;SDS011;20031;43.416;23.232;2022-12-07T15:37:32;34.53;;;19.73;;
33696;SDS011;20031;43.416;23.232;2022-12-07T15:39:57;60.40;;;32.45;;
33696;SDS011;20031;43.416;23.232;2022-12-07T15:42:23;50.30;;;28.42;;
33696;SDS011;20031;43.416;23.232;2022-12-07T15:44:48;57.38;;;32.65;;
33696;SDS011;20031;43.416;23.232;2022-12-07T15:47:38;39.13;;;23.38;;
33696;SDS011;20031;43.416;23.232;2022-12-07T15:50:06;47.83;;;24.92;;
33696;SDS011;20031;43.416;23.232;2022-12-07T15:52:34;45.58;;;24.70;;
33696;SDS011;20031;43.416;23.232;2022-12-07T15:54:59;52.30;;;29.10;;
33696;SDS011;20031;43.416;23.232;2022-12-07T15:57:25;57.33;;;34.53;;
33696;SDS011;20031;43.416;23.232;2022-12-07T15:59:52;42.17;;;23.08;;
33696;SDS011;20031;43.416;23.232;2022-12-07T16:02:18;39.70;;;22.10;;
33696;SDS011;20031;43.416;23.232;2022-12-07T16:04:43;26.77;;;16.20;;
33696;SDS011;20031;43.416;23.232;2022-12-07T16:07:10;22.73;;;14.98;;
33696;SDS011;20031;43.416;23.232;2022-12-07T16:09:36;25.45;;;15.45;;
33696;SDS011;20031;43.416;23.232;2022-12-07T16:12:02;24.25;;;14.50;;
33696;SDS011;20031;43.416;23.232;2022-12-07T16:14:28;24.52;;;14.93;;
33696;SDS011;20031;43.416;23.232;2022-12-07T16:16:53;26.00;;;14.45;;
33696;SDS011;20031;43.416;23.232;2022-12-07T16:19:19;27.50;;;14.80;;
33696;SDS011;20031;43.416;23.232;2022-12-07T16:21:44;27.23;;;16.65;;
33696;SDS011;20031;43.416;23.232;2022-12-07T16:24:09;29.15;;;17.90;;
33696;SDS011;20031;43.416;23.232;2022-12-07T16:26:35;25.60;;;16.25;;
33696;SDS011;20031;43.416;23.232;2022-12-07T16:29:00;28.08;;;16.70;;
33696;SDS011;20031;43.416;23.232;2022-12-07T16:31:26;26.80;;;16.88;;
33696;SDS011;20031;43.416;23.232;2022-12-07T16:33:53;31.52;;;19.30;;
33696;SDS011;20031;43.416;23.232;2022-12-07T16:36:20;32.95;;;19.52;;
33696;SDS011;20031;43.416;23.232;2022-12-07T16:38:47;35.95;;;21.52;;
33696;SDS011;20031;43.416;23.232;2022-12-07T16:41:13;33.78;;;19.90;;
33696;SDS011;20031;43.416;23.232;2022-12-07T16:43:39;35.33;;;19.50;;
33696;SDS011;20031;43.416;23.232;2022-12-07T16:46:04;35.63;;;20.13;;
33696;SDS011;20031;43.416;23.232;2022-12-07T16:48:30;26.05;;;17.30;;
33696;SDS011;20031;43.416;23.232;2022-12-07T16:50:55;29.10;;;16.42;;